sensor_id;sensor_type;location;lat;lon;timestamp;P1;durP1;ratioP1;P2;durP2;ratioP2
55497;SDS011;41357;52.806;18.268;2024-03-02T00:00:28;47.97;;;20.58;;
55497;SDS011;41357;52.806;18.268;2024-03-02T00:02:54;53.22;;;23.45;;
55497;SDS011;41357;52.806;18.268;2024-03-02T00:05:21;51.88;;;21.60;;
55497;SDS011;41357;52.806;18.268;2024-03-02T00:07:51;43.72;;;20.70;;
55497;SDS011;41357;52.806;18.268;2024-03-02T00:10:20;50.77;;;21.77;;
55497;SDS011;41357;52.806;18.268;2024-03-02T00:12:46;42.60;;;18.40;;
55497;SDS011;41357;52.806;18.268;2024-03-02T00:17:58;43.83;;;21.60;;
55497;SDS011;41357;52.806;18.268;2024-03-02T00:20:24;48.65;;;21.80;;
55497;SDS011;41357;52.806;18.268;2024-03-02T00:23:03;49.33;;;21.20;;
55497;SDS011;41357;52.806;18.268;2024-03-02T00:25:37;47.10;;;20.23;;
55497;SDS011;41357;52.806;18.268;2024-03-02T00:28:05;50.42;;;21.58;;
55497;SDS011;41357;52.806;18.268;2024-03-02T00:33:02;50.50;;;21.45;;
55497;SDS011;41357;52.806;18.268;2024-03-02T00:35:30;48.20;;;21.33;;
55497;SDS011;41357;52.806;18.268;2024-03-02T00:37:56;46.25;;;18.95;;
55497;SDS011;41357;52.806;18.268;2024-03-02T00:40:22;46.72;;;19.58;;
55497;SDS011;41357;52.806;18.268;2024-03-02T00:45:20;46.55;;;18.45;;
55497;SDS011;41357;52.806;18.268;2024-03-02T00:47:46;42.58;;;18.85;;
55497;SDS011;41357;52.806;18.268;2024-03-02T00:50:12;44.13;;;20.48;;
55497;SDS011;41357;52.806;18.268;2024-03-02T00:52:40;45.55;;;21.50;;
55497;SDS011;41357;52.806;18.268;2024-03-02T00:55:06;45.50;;;20.70;;
55497;SDS011;41357;52.806;18.268;2024-03-02T00:57:33;49.78;;;20.55;;
55497;SDS011;41357;52.806;18.268;2024-03-02T01:00:00;49.72;;;20.73;;
55497;SDS011;41357;52.806;18.268;2024-03-02T01:02:26;39.13;;;16.27;;
55497;SDS011;41357;52.806;18.268;2024-03-02T01:04:54;49.45;;;20.00;;
55497;SDS011;41357;52.806;18.268;2024-03-02T01:07:20;42.92;;;18.65;;
55497;SDS011;41357;52.806;18.268;2024-03-02T01:09:46;43.53;;;18.92;;
55497;SDS011;41357;52.806;18.268;2024-03-02T01:12:12;51.63;;;21.15;;
55497;SDS011;41357;52.806;18.268;2024-03-02T01:14:38;45.58;;;18.92;;
55497;SDS011;41357;52.806;18.268;2024-03-02T01:17:05;41.90;;;18.20;;
55497;SDS011;41357;52.806;18.268;2024-03-02T01:19:31;43.63;;;20.20;;
55497;SDS011;41357;52.806;18.268;2024-03-02T01:21:57;45.83;;;19.85;;
55497;SDS011;41357;52.806;18.268;2024-03-02T01:24:23;45.20;;;21.67;;
55497;SDS011;41357;52.806;18.268;2024-03-02T01:26:49;44.58;;;20.02;;
55497;SDS011;41357;52.806;18.268;2024-03-02T01:29:15;44.47;;;20.25;;
55497;SDS011;41357;52.806;18.268;2024-03-02T01:31:42;43.60;;;18.40;;
55497;SDS011;41357;52.806;18.268;2024-03-02T01:34:08;47.83;;;21.48;;
55497;SDS011;41357;52.806;18.268;2024-03-02T01:36:34;48.17;;;19.58;;
55497;SDS011;41357;52.806;18.268;2024-03-02T01:39:00;48.80;;;20.45;;
55497;SDS011;41357;52.806;18.268;2024-03-02T01:41:26;46.67;;;18.23;;
55497;SDS011;41357;52.806;18.268;2024-03-02T01:43:52;41.35;;;19.45;;
55497;SDS011;41357;52.806;18.268;2024-03-02T01:46:19;44.53;;;20.25;;
55497;SDS011;41357;52.806;18.268;2024-03-02T01:48:45;49.47;;;18.70;;
55497;SDS011;41357;52.806;18.268;2024-03-02T01:51:11;46.65;;;20.10;;
55497;SDS011;41357;52.806;18.268;2024-03-02T01:53:37;38.17;;;19.38;;
55497;SDS011;41357;52.806;18.268;2024-03-02T01:56:03;43.58;;;17.17;;
55497;SDS011;41357;52.806;18.268;2024-03-02T01:58:29;48.13;;;18.88;;
55497;SDS011;41357;52.806;18.268;2024-03-02T02:00:55;47.78;;;19.52;;
55497;SDS011;41357;52.806;18.268;2024-03-02T02:03:22;43.20;;;19.13;;
55497;SDS011;41357;52.806;18.268;2024-03-02T02:05:48;41.70;;;18.05;;
55497;SDS011;41357;52.806;18.268;2024-03-02T02:08:14;42.47;;;18.30;;
55497;SDS011;41357;52.806;18.268;2024-03-02T02:10:40;42.28;;;18.35;;
55497;SDS011;41357;52.806;18.268;2024-03-02T02:13:07;36.95;;;17.73;;
55497;SDS011;41357;52.806;18.268;2024-03-02T02:15:33;40.28;;;18.27;;
55497;SDS011;41357;52.806;18.268;2024-03-02T02:18:01;41.45;;;19.40;;
55497;SDS011;41357;52.806;18.268;2024-03-02T02:20:28;43.78;;;16.90;;
55497;SDS011;41357;52.806;18.268;2024-03-02T02:22:55;40.13;;;18.45;;
55497;SDS011;41357;52.806;18.268;2024-03-02T02:25:21;42.67;;;17.80;;
55497;SDS011;41357;52.806;18.268;2024-03-02T02:27:48;36.90;;;15.75;;
55497;SDS011;41357;52.806;18.268;2024-03-02T02:30:17;46.20;;;19.00;;
55497;SDS011;41357;52.806;18.268;2024-03-02T02:32:44;41.67;;;16.67;;
55497;SDS011;41357;52.806;18.268;2024-03-02T02:35:10;37.30;;;17.05;;
55497;SDS011;41357;52.806;18.268;2024-03-02T02:37:36;32.00;;;16.00;;
55497;SDS011;41357;52.806;18.268;2024-03-02T02:40:04;46.20;;;17.55;;
55497;SDS011;41357;52.806;18.268;2024-03-02T02:42:30;35.05;;;15.98;;
55497;SDS011;41357;52.806;18.268;2024-03-02T02:44:56;41.38;;;17.38;;
55497;SDS011;41357;52.806;18.268;2024-03-02T02:47:22;38.88;;;16.92;;
55497;SDS011;41357;52.806;18.268;2024-03-02T02:49:48;45.03;;;17.23;;
55497;SDS011;41357;52.806;18.268;2024-03-02T02:52:14;35.95;;;16.77;;
55497;SDS011;41357;52.806;18.268;2024-03-02T02:54:41;39.75;;;16.92;;
55497;SDS011;41357;52.806;18.268;2024-03-02T02:57:07;35.42;;;16.63;;
55497;SDS011;41357;52.806;18.268;2024-03-02T02:59:33;33.15;;;16.55;;
55497;SDS011;41357;52.806;18.268;2024-03-02T03:01:59;36.58;;;16.10;;
55497;SDS011;41357;52.806;18.268;2024-03-02T03:04:25;33.97;;;14.90;;
55497;SDS011;41357;52.806;18.268;2024-03-02T03:06:51;34.45;;;15.82;;
55497;SDS011;41357;52.806;18.268;2024-03-02T03:09:17;36.25;;;16.05;;
55497;SDS011;41357;52.806;18.268;2024-03-02T03:11:43;32.97;;;15.85;;
55497;SDS011;41357;52.806;18.268;2024-03-02T03:14:09;26.20;;;12.77;;
55497;SDS011;41357;52.806;18.268;2024-03-02T03:16:36;34.35;;;14.35;;
55497;SDS011;41357;52.806;18.268;2024-03-02T03:19:02;32.78;;;15.73;;
55497;SDS011;41357;52.806;18.268;2024-03-02T03:21:28;38.42;;;16.52;;
55497;SDS011;41357;52.806;18.268;2024-03-02T03:23:54;36.67;;;15.95;;
55497;SDS011;41357;52.806;18.268;2024-03-02T03:26:20;29.67;;;15.88;;
55497;SDS011;41357;52.806;18.268;2024-03-02T03:28:46;35.40;;;16.10;;
55497;SDS011;41357;52.806;18.268;2024-03-02T03:31:12;32.88;;;15.75;;
55497;SDS011;41357;52.806;18.268;2024-03-02T03:33:38;32.42;;;16.27;;
55497;SDS011;41357;52.806;18.268;2024-03-02T03:36:05;34.10;;;15.65;;
55497;SDS011;41357;52.806;18.268;2024-03-02T03:38:31;35.42;;;16.02;;
55497;SDS011;41357;52.806;18.268;2024-03-02T03:40:57;34.25;;;15.93;;
55497;SDS011;41357;52.806;18.268;2024-03-02T03:43:23;27.20;;;14.98;;
55497;SDS011;41357;52.806;18.268;2024-03-02T03:45:49;28.27;;;14.55;;
55497;SDS011;41357;52.806;18.268;2024-03-02T03:48:16;37.95;;;17.02;;
55497;SDS011;41357;52.806;18.268;2024-03-02T03:50:42;35.28;;;17.33;;
55497;SDS011;41357;52.806;18.268;2024-03-02T03:53:08;33.90;;;16.85;;
55497;SDS011;41357;52.806;18.268;2024-03-02T03:55:34;34.13;;;15.05;;
55497;SDS011;41357;52.806;18.268;2024-03-02T03:58:01;36.33;;;17.92;;
55497;SDS011;41357;52.806;18.268;2024-03-02T04:00:27;36.13;;;15.07;;
55497;SDS011;41357;52.806;18.268;2024-03-02T04:02:53;35.08;;;15.50;;
55497;SDS011;41357;52.806;18.268;2024-03-02T04:05:19;34.03;;;16.10;;
55497;SDS011;41357;52.806;18.268;2024-03-02T04:07:45;39.33;;;17.27;;
55497;SDS011;41357;52.806;18.268;2024-03-02T04:10:11;32.22;;;16.35;;
55497;SDS011;41357;52.806;18.268;2024-03-02T04:12:37;33.35;;;15.98;;
55497;SDS011;41357;52.806;18.268;2024-03-02T04:15:07;37.72;;;16.58;;
55497;SDS011;41357;52.806;18.268;2024-03-02T04:17:33;34.30;;;14.90;;
55497;SDS011;41357;52.806;18.268;2024-03-02T04:20:00;34.45;;;16.15;;
55497;SDS011;41357;52.806;18.268;2024-03-02T04:22:29;30.98;;;14.50;;
55497;SDS011;41357;52.806;18.268;2024-03-02T04:24:55;33.85;;;15.73;;
55497;SDS011;41357;52.806;18.268;2024-03-02T04:27:21;36.83;;;14.90;;
55497;SDS011;41357;52.806;18.268;2024-03-02T04:29:48;42.60;;;15.70;;
55497;SDS011;41357;52.806;18.268;2024-03-02T04:32:14;35.78;;;16.52;;
55497;SDS011;41357;52.806;18.268;2024-03-02T04:34:44;35.05;;;15.35;;
55497;SDS011;41357;52.806;18.268;2024-03-02T04:37:10;33.08;;;15.68;;
55497;SDS011;41357;52.806;18.268;2024-03-02T04:39:40;29.73;;;16.05;;
55497;SDS011;41357;52.806;18.268;2024-03-02T04:42:06;35.38;;;15.13;;
55497;SDS011;41357;52.806;18.268;2024-03-02T04:44:32;30.63;;;14.45;;
55497;SDS011;41357;52.806;18.268;2024-03-02T04:46:58;32.50;;;15.40;;
55497;SDS011;41357;52.806;18.268;2024-03-02T04:49:24;36.35;;;15.85;;
55497;SDS011;41357;52.806;18.268;2024-03-02T04:51:50;29.85;;;15.32;;
55497;SDS011;41357;52.806;18.268;2024-03-02T04:54:16;31.45;;;14.77;;
55497;SDS011;41357;52.806;18.268;2024-03-02T04:56:43;35.47;;;16.67;;
55497;SDS011;41357;52.806;18.268;2024-03-02T04:59:17;33.08;;;15.43;;
55497;SDS011;41357;52.806;18.268;2024-03-02T05:01:44;33.70;;;16.58;;
55497;SDS011;41357;52.806;18.268;2024-03-02T05:04:10;30.58;;;13.68;;
55497;SDS011;41357;52.806;18.268;2024-03-02T05:06:39;29.85;;;14.95;;
55497;SDS011;41357;52.806;18.268;2024-03-02T05:09:08;33.90;;;16.58;;
55497;SDS011;41357;52.806;18.268;2024-03-02T05:11:35;31.73;;;16.55;;
55497;SDS011;41357;52.806;18.268;2024-03-02T05:14:05;33.60;;;17.23;;
55497;SDS011;41357;52.806;18.268;2024-03-02T05:16:34;39.65;;;16.48;;
55497;SDS011;41357;52.806;18.268;2024-03-02T05:19:03;38.92;;;15.90;;
55497;SDS011;41357;52.806;18.268;2024-03-02T05:21:32;32.80;;;15.18;;
55497;SDS011;41357;52.806;18.268;2024-03-02T05:23:58;31.48;;;14.93;;
55497;SDS011;41357;52.806;18.268;2024-03-02T05:26:25;32.40;;;15.63;;
55497;SDS011;41357;52.806;18.268;2024-03-02T05:28:51;31.50;;;16.08;;
55497;SDS011;41357;52.806;18.268;2024-03-02T05:31:18;37.22;;;16.58;;
55497;SDS011;41357;52.806;18.268;2024-03-02T05:33:44;35.05;;;16.13;;
55497;SDS011;41357;52.806;18.268;2024-03-02T05:36:10;38.15;;;18.23;;
55497;SDS011;41357;52.806;18.268;2024-03-02T05:38:36;38.47;;;16.10;;
55497;SDS011;41357;52.806;18.268;2024-03-02T05:41:02;41.40;;;18.02;;
55497;SDS011;41357;52.806;18.268;2024-03-02T05:43:28;34.92;;;15.98;;
55497;SDS011;41357;52.806;18.268;2024-03-02T05:45:54;36.80;;;17.92;;
55497;SDS011;41357;52.806;18.268;2024-03-02T05:48:21;34.45;;;16.33;;
55497;SDS011;41357;52.806;18.268;2024-03-02T05:50:47;35.13;;;16.20;;
55497;SDS011;41357;52.806;18.268;2024-03-02T05:53:13;39.42;;;16.88;;
55497;SDS011;41357;52.806;18.268;2024-03-02T05:55:40;33.58;;;16.42;;
55497;SDS011;41357;52.806;18.268;2024-03-02T05:58:06;35.70;;;16.65;;
55497;SDS011;41357;52.806;18.268;2024-03-02T06:00:51;31.42;;;16.02;;
55497;SDS011;41357;52.806;18.268;2024-03-02T06:03:17;38.30;;;16.48;;
55497;SDS011;41357;52.806;18.268;2024-03-02T06:05:43;34.13;;;15.88;;
55497;SDS011;41357;52.806;18.268;2024-03-02T06:08:09;30.25;;;16.70;;
55497;SDS011;41357;52.806;18.268;2024-03-02T06:10:35;31.85;;;16.40;;
55497;SDS011;41357;52.806;18.268;2024-03-02T06:13:01;36.08;;;18.20;;
55497;SDS011;41357;52.806;18.268;2024-03-02T06:15:28;30.83;;;15.45;;
55497;SDS011;41357;52.806;18.268;2024-03-02T06:17:54;34.13;;;17.08;;
55497;SDS011;41357;52.806;18.268;2024-03-02T06:20:20;37.75;;;16.95;;
55497;SDS011;41357;52.806;18.268;2024-03-02T06:22:46;36.33;;;17.27;;
55497;SDS011;41357;52.806;18.268;2024-03-02T06:25:12;31.77;;;16.80;;
55497;SDS011;41357;52.806;18.268;2024-03-02T06:27:38;35.45;;;16.73;;
55497;SDS011;41357;52.806;18.268;2024-03-02T06:30:05;35.20;;;17.38;;
55497;SDS011;41357;52.806;18.268;2024-03-02T06:32:31;35.60;;;16.48;;
55497;SDS011;41357;52.806;18.268;2024-03-02T06:34:57;39.50;;;16.35;;
55497;SDS011;41357;52.806;18.268;2024-03-02T06:37:24;31.52;;;16.45;;
55497;SDS011;41357;52.806;18.268;2024-03-02T06:39:50;32.92;;;15.35;;
55497;SDS011;41357;52.806;18.268;2024-03-02T06:42:16;27.38;;;14.75;;
55497;SDS011;41357;52.806;18.268;2024-03-02T06:44:43;29.73;;;14.73;;
55497;SDS011;41357;52.806;18.268;2024-03-02T06:47:09;37.40;;;15.40;;
55497;SDS011;41357;52.806;18.268;2024-03-02T06:49:35;32.05;;;15.27;;
55497;SDS011;41357;52.806;18.268;2024-03-02T06:52:01;34.80;;;16.48;;
55497;SDS011;41357;52.806;18.268;2024-03-02T06:54:27;36.42;;;15.45;;
55497;SDS011;41357;52.806;18.268;2024-03-02T06:56:53;31.90;;;15.85;;
55497;SDS011;41357;52.806;18.268;2024-03-02T06:59:19;34.13;;;16.35;;
55497;SDS011;41357;52.806;18.268;2024-03-02T07:01:45;33.60;;;15.98;;
55497;SDS011;41357;52.806;18.268;2024-03-02T07:04:11;34.92;;;17.48;;
55497;SDS011;41357;52.806;18.268;2024-03-02T07:06:37;39.05;;;17.85;;
55497;SDS011;41357;52.806;18.268;2024-03-02T07:09:04;38.60;;;16.20;;
55497;SDS011;41357;52.806;18.268;2024-03-02T07:11:32;30.52;;;16.02;;
55497;SDS011;41357;52.806;18.268;2024-03-02T07:13:58;32.80;;;16.63;;
55497;SDS011;41357;52.806;18.268;2024-03-02T07:16:24;30.15;;;14.57;;
55497;SDS011;41357;52.806;18.268;2024-03-02T07:18:55;33.40;;;15.98;;
55497;SDS011;41357;52.806;18.268;2024-03-02T07:21:22;33.80;;;15.73;;
55497;SDS011;41357;52.806;18.268;2024-03-02T07:23:48;36.15;;;15.98;;
55497;SDS011;41357;52.806;18.268;2024-03-02T07:26:15;30.25;;;13.77;;
55497;SDS011;41357;52.806;18.268;2024-03-02T07:28:41;42.40;;;15.88;;
55497;SDS011;41357;52.806;18.268;2024-03-02T07:31:09;32.50;;;16.13;;
55497;SDS011;41357;52.806;18.268;2024-03-02T07:33:35;41.20;;;17.08;;
55497;SDS011;41357;52.806;18.268;2024-03-02T07:36:01;35.97;;;18.88;;
55497;SDS011;41357;52.806;18.268;2024-03-02T07:38:30;30.58;;;15.68;;
55497;SDS011;41357;52.806;18.268;2024-03-02T07:40:59;35.22;;;16.60;;
55497;SDS011;41357;52.806;18.268;2024-03-02T07:43:25;37.33;;;16.92;;
55497;SDS011;41357;52.806;18.268;2024-03-02T07:45:51;33.60;;;18.02;;
55497;SDS011;41357;52.806;18.268;2024-03-02T07:48:18;40.05;;;18.10;;
55497;SDS011;41357;52.806;18.268;2024-03-02T07:50:44;30.33;;;15.80;;
55497;SDS011;41357;52.806;18.268;2024-03-02T07:53:10;36.85;;;17.35;;
55497;SDS011;41357;52.806;18.268;2024-03-02T07:55:36;33.65;;;16.48;;
55497;SDS011;41357;52.806;18.268;2024-03-02T07:58:02;34.47;;;17.45;;
55497;SDS011;41357;52.806;18.268;2024-03-02T08:00:29;35.33;;;16.42;;
55497;SDS011;41357;52.806;18.268;2024-03-02T08:02:55;29.88;;;15.80;;
55497;SDS011;41357;52.806;18.268;2024-03-02T08:05:21;39.47;;;17.02;;
55497;SDS011;41357;52.806;18.268;2024-03-02T08:07:47;34.45;;;16.95;;
55497;SDS011;41357;52.806;18.268;2024-03-02T08:10:17;39.28;;;17.02;;
55497;SDS011;41357;52.806;18.268;2024-03-02T08:12:44;33.88;;;15.68;;
55497;SDS011;41357;52.806;18.268;2024-03-02T08:15:10;32.20;;;16.63;;
55497;SDS011;41357;52.806;18.268;2024-03-02T08:17:39;30.42;;;15.75;;
55497;SDS011;41357;52.806;18.268;2024-03-02T08:20:13;34.33;;;16.10;;
55497;SDS011;41357;52.806;18.268;2024-03-02T08:22:39;33.72;;;15.95;;
55497;SDS011;41357;52.806;18.268;2024-03-02T08:25:06;35.00;;;15.10;;
55497;SDS011;41357;52.806;18.268;2024-03-02T08:27:33;29.73;;;15.02;;
55497;SDS011;41357;52.806;18.268;2024-03-02T08:29:59;27.70;;;13.57;;
55497;SDS011;41357;52.806;18.268;2024-03-02T08:32:25;28.38;;;14.27;;
55497;SDS011;41357;52.806;18.268;2024-03-02T08:34:51;32.15;;;15.90;;
55497;SDS011;41357;52.806;18.268;2024-03-02T08:37:17;36.85;;;16.33;;
55497;SDS011;41357;52.806;18.268;2024-03-02T08:39:44;29.42;;;15.90;;
55497;SDS011;41357;52.806;18.268;2024-03-02T08:42:10;28.52;;;14.68;;
55497;SDS011;41357;52.806;18.268;2024-03-02T08:44:37;34.08;;;15.95;;
55497;SDS011;41357;52.806;18.268;2024-03-02T08:47:03;40.20;;;18.55;;
55497;SDS011;41357;52.806;18.268;2024-03-02T08:49:30;38.40;;;16.80;;
55497;SDS011;41357;52.806;18.268;2024-03-02T08:51:56;33.10;;;16.42;;
55497;SDS011;41357;52.806;18.268;2024-03-02T08:54:22;35.92;;;17.25;;
55497;SDS011;41357;52.806;18.268;2024-03-02T08:56:48;38.05;;;16.95;;
55497;SDS011;41357;52.806;18.268;2024-03-02T08:59:15;37.13;;;16.38;;
55497;SDS011;41357;52.806;18.268;2024-03-02T09:01:41;29.80;;;14.20;;
55497;SDS011;41357;52.806;18.268;2024-03-02T09:04:08;32.80;;;15.20;;
55497;SDS011;41357;52.806;18.268;2024-03-02T09:06:34;35.25;;;16.35;;
55497;SDS011;41357;52.806;18.268;2024-03-02T09:09:00;31.35;;;15.35;;
55497;SDS011;41357;52.806;18.268;2024-03-02T09:11:27;32.42;;;14.75;;
55497;SDS011;41357;52.806;18.268;2024-03-02T09:13:53;32.03;;;16.02;;
55497;SDS011;41357;52.806;18.268;2024-03-02T09:16:21;35.53;;;17.35;;
55497;SDS011;41357;52.806;18.268;2024-03-02T09:18:47;33.38;;;16.90;;
55497;SDS011;41357;52.806;18.268;2024-03-02T09:21:14;41.97;;;17.13;;
55497;SDS011;41357;52.806;18.268;2024-03-02T09:23:40;37.20;;;19.55;;
55497;SDS011;41357;52.806;18.268;2024-03-02T09:26:06;36.63;;;17.63;;
55497;SDS011;41357;52.806;18.268;2024-03-02T09:28:32;32.28;;;16.10;;
55497;SDS011;41357;52.806;18.268;2024-03-02T09:31:00;36.85;;;17.02;;
55497;SDS011;41357;52.806;18.268;2024-03-02T09:33:26;34.08;;;17.67;;
55497;SDS011;41357;52.806;18.268;2024-03-02T09:35:52;34.15;;;17.00;;
55497;SDS011;41357;52.806;18.268;2024-03-02T09:38:18;30.45;;;17.10;;
55497;SDS011;41357;52.806;18.268;2024-03-02T09:40:45;32.80;;;16.45;;
55497;SDS011;41357;52.806;18.268;2024-03-02T09:43:11;31.98;;;16.17;;
55497;SDS011;41357;52.806;18.268;2024-03-02T09:45:38;29.08;;;15.52;;
55497;SDS011;41357;52.806;18.268;2024-03-02T09:48:05;31.00;;;16.00;;
55497;SDS011;41357;52.806;18.268;2024-03-02T09:50:31;30.90;;;15.73;;
55497;SDS011;41357;52.806;18.268;2024-03-02T09:52:57;32.92;;;15.70;;
55497;SDS011;41357;52.806;18.268;2024-03-02T09:55:24;33.83;;;15.57;;
55497;SDS011;41357;52.806;18.268;2024-03-02T09:57:51;36.42;;;17.65;;
55497;SDS011;41357;52.806;18.268;2024-03-02T10:00:17;29.98;;;16.75;;
55497;SDS011;41357;52.806;18.268;2024-03-02T10:02:43;36.88;;;19.33;;
55497;SDS011;41357;52.806;18.268;2024-03-02T10:05:11;32.72;;;16.02;;
55497;SDS011;41357;52.806;18.268;2024-03-02T10:07:37;33.13;;;15.95;;
55497;SDS011;41357;52.806;18.268;2024-03-02T10:10:16;37.88;;;17.52;;
55497;SDS011;41357;52.806;18.268;2024-03-02T10:12:42;36.92;;;17.40;;
55497;SDS011;41357;52.806;18.268;2024-03-02T10:15:08;30.23;;;15.98;;
55497;SDS011;41357;52.806;18.268;2024-03-02T10:17:35;36.92;;;18.33;;
55497;SDS011;41357;52.806;18.268;2024-03-02T10:22:46;32.85;;;17.50;;
55497;SDS011;41357;52.806;18.268;2024-03-02T10:25:27;35.75;;;17.05;;
55497;SDS011;41357;52.806;18.268;2024-03-02T10:27:56;32.00;;;16.60;;
55497;SDS011;41357;52.806;18.268;2024-03-02T10:30:22;33.17;;;18.55;;
55497;SDS011;41357;52.806;18.268;2024-03-02T10:32:49;34.53;;;19.23;;
55497;SDS011;41357;52.806;18.268;2024-03-02T10:35:16;33.72;;;17.92;;
55497;SDS011;41357;52.806;18.268;2024-03-02T10:37:42;36.20;;;16.77;;
55497;SDS011;41357;52.806;18.268;2024-03-02T10:40:10;36.53;;;17.35;;
55497;SDS011;41357;52.806;18.268;2024-03-02T10:42:37;38.67;;;17.17;;
55497;SDS011;41357;52.806;18.268;2024-03-02T10:45:06;37.15;;;19.20;;
55497;SDS011;41357;52.806;18.268;2024-03-02T10:47:33;33.17;;;17.35;;
55497;SDS011;41357;52.806;18.268;2024-03-02T10:50:02;33.78;;;15.90;;
55497;SDS011;41357;52.806;18.268;2024-03-02T10:52:31;35.80;;;17.70;;
55497;SDS011;41357;52.806;18.268;2024-03-02T10:54:57;39.05;;;18.23;;
55497;SDS011;41357;52.806;18.268;2024-03-02T10:57:23;34.50;;;17.00;;
55497;SDS011;41357;52.806;18.268;2024-03-02T10:59:55;39.25;;;18.10;;
55497;SDS011;41357;52.806;18.268;2024-03-02T11:02:22;36.58;;;19.23;;
55497;SDS011;41357;52.806;18.268;2024-03-02T11:04:50;33.38;;;17.08;;
55497;SDS011;41357;52.806;18.268;2024-03-02T11:07:17;39.17;;;17.80;;
55497;SDS011;41357;52.806;18.268;2024-03-02T11:12:39;31.88;;;17.08;;
55497;SDS011;41357;52.806;18.268;2024-03-02T11:15:10;36.20;;;17.40;;
55497;SDS011;41357;52.806;18.268;2024-03-02T11:17:39;35.72;;;18.42;;
55497;SDS011;41357;52.806;18.268;2024-03-02T11:20:06;34.28;;;18.30;;
55497;SDS011;41357;52.806;18.268;2024-03-02T11:22:34;37.42;;;20.13;;
55497;SDS011;41357;52.806;18.268;2024-03-02T11:25:01;39.03;;;20.38;;
55497;SDS011;41357;52.806;18.268;2024-03-02T11:33:00;46.65;;;27.25;;
55497;SDS011;41357;52.806;18.268;2024-03-02T11:35:36;36.92;;;18.25;;
55497;SDS011;41357;52.806;18.268;2024-03-02T11:38:03;35.58;;;19.85;;
55497;SDS011;41357;52.806;18.268;2024-03-02T11:40:30;37.72;;;18.98;;
55497;SDS011;41357;52.806;18.268;2024-03-02T11:42:56;40.35;;;20.38;;
55497;SDS011;41357;52.806;18.268;2024-03-02T11:45:23;34.38;;;17.42;;
55497;SDS011;41357;52.806;18.268;2024-03-02T11:47:50;39.50;;;19.95;;
55497;SDS011;41357;52.806;18.268;2024-03-02T11:52:55;42.50;;;20.27;;
55497;SDS011;41357;52.806;18.268;2024-03-02T11:55:22;35.60;;;18.05;;
55497;SDS011;41357;52.806;18.268;2024-03-02T11:57:49;37.03;;;19.67;;
55497;SDS011;41357;52.806;18.268;2024-03-02T12:00:19;40.50;;;19.40;;
55497;SDS011;41357;52.806;18.268;2024-03-02T12:02:59;36.45;;;19.60;;
55497;SDS011;41357;52.806;18.268;2024-03-02T12:05:26;39.65;;;21.98;;
55497;SDS011;41357;52.806;18.268;2024-03-02T12:08:02;39.45;;;19.63;;
55497;SDS011;41357;52.806;18.268;2024-03-02T12:10:28;41.00;;;20.15;;
55497;SDS011;41357;52.806;18.268;2024-03-02T12:12:55;42.17;;;19.98;;
55497;SDS011;41357;52.806;18.268;2024-03-02T12:15:31;40.13;;;18.95;;
55497;SDS011;41357;52.806;18.268;2024-03-02T12:17:58;34.22;;;18.63;;
55497;SDS011;41357;52.806;18.268;2024-03-02T12:20:25;38.75;;;20.65;;
55497;SDS011;41357;52.806;18.268;2024-03-02T12:22:55;44.42;;;21.77;;
55497;SDS011;41357;52.806;18.268;2024-03-02T12:25:22;43.22;;;21.17;;
55497;SDS011;41357;52.806;18.268;2024-03-02T12:27:49;39.75;;;20.52;;
55497;SDS011;41357;52.806;18.268;2024-03-02T12:30:18;41.55;;;20.63;;
55497;SDS011;41357;52.806;18.268;2024-03-02T12:32:45;45.28;;;20.70;;
55497;SDS011;41357;52.806;18.268;2024-03-02T12:35:11;39.53;;;21.10;;
55497;SDS011;41357;52.806;18.268;2024-03-02T12:37:46;44.38;;;21.58;;
55497;SDS011;41357;52.806;18.268;2024-03-02T12:40:13;42.20;;;21.50;;
55497;SDS011;41357;52.806;18.268;2024-03-02T12:42:40;49.13;;;20.58;;
55497;SDS011;41357;52.806;18.268;2024-03-02T12:45:07;42.33;;;21.33;;
55497;SDS011;41357;52.806;18.268;2024-03-02T12:47:34;45.58;;;20.58;;
55497;SDS011;41357;52.806;18.268;2024-03-02T12:50:00;39.83;;;18.70;;
55497;SDS011;41357;52.806;18.268;2024-03-02T12:52:26;44.28;;;20.88;;
55497;SDS011;41357;52.806;18.268;2024-03-02T12:54:52;37.25;;;19.33;;
55497;SDS011;41357;52.806;18.268;2024-03-02T12:57:25;44.30;;;22.35;;
55497;SDS011;41357;52.806;18.268;2024-03-02T12:59:52;45.53;;;21.52;;
55497;SDS011;41357;52.806;18.268;2024-03-02T13:02:18;38.38;;;20.38;;
55497;SDS011;41357;52.806;18.268;2024-03-02T13:04:44;45.08;;;22.42;;
55497;SDS011;41357;52.806;18.268;2024-03-02T13:07:18;41.92;;;19.17;;
55497;SDS011;41357;52.806;18.268;2024-03-02T13:09:45;45.08;;;20.27;;
55497;SDS011;41357;52.806;18.268;2024-03-02T13:12:11;44.47;;;21.02;;
55497;SDS011;41357;52.806;18.268;2024-03-02T13:14:37;38.45;;;19.98;;
55497;SDS011;41357;52.806;18.268;2024-03-02T13:17:03;44.10;;;20.27;;
55497;SDS011;41357;52.806;18.268;2024-03-02T13:19:30;44.60;;;20.63;;
55497;SDS011;41357;52.806;18.268;2024-03-02T13:21:57;42.72;;;20.95;;
55497;SDS011;41357;52.806;18.268;2024-03-02T13:24:23;42.67;;;20.15;;
55497;SDS011;41357;52.806;18.268;2024-03-02T13:26:53;48.72;;;21.60;;
55497;SDS011;41357;52.806;18.268;2024-03-02T13:29:21;41.38;;;20.00;;
55497;SDS011;41357;52.806;18.268;2024-03-02T13:31:47;49.22;;;22.70;;
55497;SDS011;41357;52.806;18.268;2024-03-02T13:34:14;48.78;;;21.63;;
55497;SDS011;41357;52.806;18.268;2024-03-02T13:36:40;46.38;;;20.83;;
55497;SDS011;41357;52.806;18.268;2024-03-02T13:39:06;43.47;;;20.35;;
55497;SDS011;41357;52.806;18.268;2024-03-02T13:41:35;50.25;;;21.77;;
55497;SDS011;41357;52.806;18.268;2024-03-02T13:44:01;47.03;;;20.15;;
55497;SDS011;41357;52.806;18.268;2024-03-02T13:46:27;42.75;;;20.95;;
55497;SDS011;41357;52.806;18.268;2024-03-02T13:48:54;53.80;;;22.27;;
55497;SDS011;41357;52.806;18.268;2024-03-02T13:51:20;51.03;;;22.35;;
55497;SDS011;41357;52.806;18.268;2024-03-02T13:53:46;46.58;;;20.05;;
55497;SDS011;41357;52.806;18.268;2024-03-02T13:56:12;42.88;;;20.05;;
55497;SDS011;41357;52.806;18.268;2024-03-02T13:58:38;57.00;;;23.45;;
55497;SDS011;41357;52.806;18.268;2024-03-02T14:01:05;60.03;;;21.02;;
55497;SDS011;41357;52.806;18.268;2024-03-02T14:03:31;48.97;;;20.42;;
55497;SDS011;41357;52.806;18.268;2024-03-02T14:05:57;47.50;;;20.27;;
55497;SDS011;41357;52.806;18.268;2024-03-02T14:08:23;56.60;;;24.65;;
55497;SDS011;41357;52.806;18.268;2024-03-02T14:10:49;44.90;;;19.40;;
55497;SDS011;41357;52.806;18.268;2024-03-02T14:13:16;61.78;;;22.50;;
55497;SDS011;41357;52.806;18.268;2024-03-02T14:15:42;57.63;;;23.63;;
55497;SDS011;41357;52.806;18.268;2024-03-02T14:18:08;53.38;;;21.60;;
55497;SDS011;41357;52.806;18.268;2024-03-02T14:20:35;62.97;;;25.73;;
55497;SDS011;41357;52.806;18.268;2024-03-02T14:23:02;48.42;;;21.58;;
55497;SDS011;41357;52.806;18.268;2024-03-02T14:25:29;55.00;;;23.58;;
55497;SDS011;41357;52.806;18.268;2024-03-02T14:27:58;49.25;;;23.17;;